La Marque, Texas
Current Conditions -  °F | °C
As of 5:52 PM on Sunday 21 Dec 2014 (Local Time) from KGLS Reporting Station
Overcast Overcast  
Wind Chill: 57°   Ceiling: 1200
Heat Index: 57°   Visibility: 10mi
Dew Point: 54°   Wind: 6mph
Humidity: 89%   Direction: 50°NE
Pressure: 29.96"   Gusts: NA
Location:  29.37°N, 94.97°W
Report Text: KGLS 212352Z 05005KT 10SM OVC012 14/12 A2996 RMK AO1 SLP146 T01390122 10150 20139 56008
Loading
Personal Weather Stations






























Interactive Weather Map New forecast layout! Learn more

10-Day Weather Forecast

Advertisements
Track Severe Weather on mobile